Time;durP1;ratioP1;P1;durP2;ratioP2;P2;SDS_P1;SDS_P2;PMS_P1;PMS_P2;Temp;Humidity;BMP_temperature;BMP_pressure;BME280_temperature;BME280_humidity;BME280_pressure;Samples;Min_cycle;Max_cycle;Signal;HPM_P1;HPM_P2
2022/04/15 00:02:03;;;;;;;7.00;4.87;;;;;;;;;;5093404;28;20923;-79
2022/04/15 00:04:31;;;;;;;4.50;4.10;;;;;;;;;;5093381;28;21005;-79
2022/04/15 00:06:59;;;;;;;4.40;4.00;;;;;;;;;;5081902;28;20476;-79
2022/04/15 00:09:26;;;;;;;6.00;4.30;;;;;;;;;;5078196;28;20449;-79
2022/04/15 00:11:53;;;;;;;5.03;4.63;;;;;;;;;;5076697;28;20448;-79
2022/04/15 00:14:20;;;;;;;5.67;4.70;;;;;;;;;;5076551;28;20518;-79
2022/04/15 00:16:47;;;;;;;6.97;4.80;;;;;;;;;;5076930;28;20449;-79
2022/04/15 00:19:16;;;;;;;5.10;4.60;;;;;;;;;;5076133;28;20440;-79
2022/04/15 00:21:43;;;;;;;4.87;4.40;;;;;;;;;;5075111;28;20440;-79
2022/04/15 00:24:10;;;;;;;4.30;3.90;;;;;;;;;;5074932;28;20451;-78
2022/04/15 00:26:37;;;;;;;5.53;3.90;;;;;;;;;;5075002;28;20451;-79
2022/04/15 00:29:06;;;;;;;4.50;3.97;;;;;;;;;;5076478;28;20458;-81
2022/04/15 00:31:33;;;;;;;4.53;4.23;;;;;;;;;;5076993;28;20448;-79
2022/04/15 00:34:00;;;;;;;5.67;4.40;;;;;;;;;;5076429;28;20470;-79
2022/04/15 00:36:29;;;;;;;5.43;4.50;;;;;;;;;;5078129;28;20492;-79
2022/04/15 00:38:56;;;;;;;5.27;4.10;;;;;;;;;;5083112;28;20440;-80
2022/04/15 00:41:23;;;;;;;4.43;4.03;;;;;;;;;;5082357;28;20452;-79
2022/04/15 00:43:54;;;;;;;4.80;4.07;;;;;;;;;;5082213;28;20514;-79
2022/04/15 00:46:21;;;;;;;5.57;4.20;;;;;;;;;;5083913;28;20490;-79
2022/04/15 00:48:48;;;;;;;9.20;5.30;;;;;;;;;;5081425;28;20450;-80
2022/04/15 00:51:15;;;;;;;5.57;4.60;;;;;;;;;;5085457;28;20459;-79
2022/04/15 00:53:44;;;;;;;7.80;4.40;;;;;;;;;;5080114;28;20448;-78
2022/04/15 00:56:11;;;;;;;5.00;4.50;;;;;;;;;;5075806;28;20491;-79
2022/04/15 00:58:40;;;;;;;4.30;4.00;;;;;;;;;;5075096;28;20966;-80
2022/04/15 01:01:08;;;;;;;4.80;4.40;;;;;;;;;;5074387;28;20951;-79
2022/04/15 01:03:35;;;;;;;4.90;4.50;;;;;;;;;;5074782;28;20443;-80
2022/04/15 01:06:03;;;;;;;5.43;5.03;;;;;;;;;;5081550;28;20464;-80
2022/04/15 01:08:30;;;;;;;5.50;4.10;;;;;;;;;;5095624;28;20459;-80
2022/04/15 01:11:00;;;;;;;5.77;3.80;;;;;;;;;;5094802;28;20924;-80
2022/04/15 01:13:27;;;;;;;5.03;4.10;;;;;;;;;;5095309;28;20447;-80
2022/04/15 01:15:55;;;;;;;5.57;4.30;;;;;;;;;;5094549;28;20491;-80
2022/04/15 01:18:23;;;;;;;5.10;4.70;;;;;;;;;;5094176;28;20447;-80
2022/04/15 01:20:52;;;;;;;4.47;4.03;;;;;;;;;;5094799;28;20435;-79
2022/04/15 01:23:20;;;;;;;4.23;3.93;;;;;;;;;;5094448;28;20947;-79
2022/04/15 01:25:47;;;;;;;4.70;3.93;;;;;;;;;;5094505;28;20452;-79
2022/04/15 01:28:17;;;;;;;6.60;4.10;;;;;;;;;;5094977;28;20447;-79
2022/04/15 01:30:45;;;;;;;4.67;4.27;;;;;;;;;;5095045;28;20831;-79
2022/04/15 01:33:12;;;;;;;4.53;4.17;;;;;;;;;;5094091;28;20470;-80
2022/04/15 01:35:39;;;;;;;4.90;4.40;;;;;;;;;;5094270;28;20486;-79
2022/04/15 01:38:10;;;;;;;4.40;3.70;;;;;;;;;;5094407;28;20440;-80
2022/04/15 01:40:38;;;;;;;4.30;3.90;;;;;;;;;;5093850;28;20452;-79
2022/04/15 01:43:06;;;;;;;4.47;4.17;;;;;;;;;;5094457;28;20448;-79
2022/04/15 01:45:33;;;;;;;4.00;3.60;;;;;;;;;;5094179;28;20467;-80
2022/04/15 01:48:00;;;;;;;4.10;3.70;;;;;;;;;;5094639;28;20501;-80
2022/04/15 01:50:28;;;;;;;7.30;4.20;;;;;;;;;;5094465;28;20452;-79
2022/04/15 01:52:55;;;;;;;4.53;3.67;;;;;;;;;;5093753;28;20479;-79
2022/04/15 01:55:22;;;;;;;5.40;3.90;;;;;;;;;;5094396;28;20491;-79
2022/04/15 01:57:50;;;;;;;4.63;4.03;;;;;;;;;;5094131;28;20444;-79
2022/04/15 02:00:18;;;;;;;5.13;4.30;;;;;;;;;;5093970;28;20455;-80
2022/04/15 02:02:45;;;;;;;4.27;3.97;;;;;;;;;;5094054;28;20428;-79
2022/04/15 02:05:12;;;;;;;4.53;4.23;;;;;;;;;;5093648;28;20463;-80
2022/04/15 02:07:39;;;;;;;5.07;4.67;;;;;;;;;;5093935;28;20459;-78
2022/04/15 02:10:07;;;;;;;4.90;4.40;;;;;;;;;;5094109;28;20455;-80
2022/04/15 02:12:34;;;;;;;3.90;3.60;;;;;;;;;;5092610;28;20460;-79
2022/04/15 02:15:02;;;;;;;6.93;4.47;;;;;;;;;;5093433;28;20455;-79
2022/04/15 02:17:29;;;;;;;4.90;4.20;;;;;;;;;;5097996;28;20460;-78
2022/04/15 02:19:56;;;;;;;4.77;4.20;;;;;;;;;;5096960;28;20474;-79
2022/04/15 02:22:23;;;;;;;4.50;4.10;;;;;;;;;;5098234;28;20822;-79
2022/04/15 02:24:50;;;;;;;4.60;4.20;;;;;;;;;;5099503;28;20455;-79
2022/04/15 02:27:17;;;;;;;4.70;4.30;;;;;;;;;;5104843;28;20443;-80
2022/04/15 02:29:44;;;;;;;6.20;4.70;;;;;;;;;;5099628;28;20443;-79
2022/04/15 02:32:12;;;;;;;5.40;4.53;;;;;;;;;;5092951;28;20444;-79
2022/04/15 02:34:40;;;;;;;8.20;4.00;;;;;;;;;;5092932;28;20575;-78
2022/04/15 02:37:07;;;;;;;4.47;4.10;;;;;;;;;;5092383;28;20810;-79
2022/04/15 02:39:34;;;;;;;4.97;4.53;;;;;;;;;;5092612;28;20452;-79
2022/04/15 02:42:01;;;;;;;7.90;4.70;;;;;;;;;;5092779;28;20926;-79
2022/04/15 02:44:29;;;;;;;5.93;4.77;;;;;;;;;;5092207;28;20467;-79
2022/04/15 02:46:58;;;;;;;4.53;4.23;;;;;;;;;;5092820;28;20436;-79
2022/04/15 02:49:27;;;;;;;4.37;4.00;;;;;;;;;;5095379;28;20842;-79
2022/04/15 02:51:54;;;;;;;5.20;4.20;;;;;;;;;;5094315;28;20439;-79
2022/04/15 02:54:21;;;;;;;4.33;4.03;;;;;;;;;;5094383;28;20515;-80
2022/04/15 02:56:49;;;;;;;5.23;4.73;;;;;;;;;;5095016;28;20467;-78
2022/04/15 02:59:17;;;;;;;4.97;4.47;;;;;;;;;;5094882;28;20448;-80
2022/04/15 03:01:45;;;;;;;5.37;4.80;;;;;;;;;;5095774;28;20448;-80
2022/04/15 03:04:12;;;;;;;5.07;4.67;;;;;;;;;;5095564;28;20444;-79
2022/04/15 03:06:41;;;;;;;5.67;5.27;;;;;;;;;;5095358;28;20431;-79
2022/04/15 03:09:08;;;;;;;5.70;4.50;;;;;;;;;;5095961;28;20440;-79
2022/04/15 03:11:38;;;;;;;5.37;4.97;;;;;;;;;;5094051;28;20512;-79
2022/04/15 03:14:05;;;;;;;6.30;4.60;;;;;;;;;;5094072;28;20505;-80
2022/04/15 03:16:32;;;;;;;5.30;4.80;;;;;;;;;;5093963;28;21056;-80
2022/04/15 03:18:59;;;;;;;4.83;4.43;;;;;;;;;;5093179;28;20552;-79
2022/04/15 03:21:27;;;;;;;8.03;4.80;;;;;;;;;;5092516;28;20441;-79
2022/04/15 03:23:55;;;;;;;5.37;4.87;;;;;;;;;;5091690;28;20935;-80
2022/04/15 03:26:22;;;;;;;4.80;4.40;;;;;;;;;;5092185;28;20460;-80
2022/04/15 03:28:49;;;;;;;6.20;5.60;;;;;;;;;;5097000;28;20452;-79
2022/04/15 03:31:16;;;;;;;4.60;4.00;;;;;;;;;;5093632;28;20455;-79
2022/04/15 03:33:44;;;;;;;7.30;4.83;;;;;;;;;;5093258;28;20955;-79
2022/04/15 03:36:11;;;;;;;6.17;5.30;;;;;;;;;;5093235;28;20486;-79
2022/04/15 03:38:38;;;;;;;5.67;5.00;;;;;;;;;;5092816;28;20447;-80
2022/04/15 03:41:06;;;;;;;5.07;4.67;;;;;;;;;;5093607;28;20442;-80
2022/04/15 03:43:33;;;;;;;4.50;4.20;;;;;;;;;;5092032;28;20931;-79
2022/04/15 03:46:00;;;;;;;5.73;5.00;;;;;;;;;;5091910;28;20495;-79
2022/04/15 03:48:28;;;;;;;5.40;4.87;;;;;;;;;;5091936;28;20440;-79
2022/04/15 03:50:55;;;;;;;4.97;4.47;;;;;;;;;;5092447;28;20440;-80
2022/04/15 03:53:22;;;;;;;5.20;4.73;;;;;;;;;;5093026;28;20443;-78
2022/04/15 03:55:50;;;;;;;5.70;5.10;;;;;;;;;;5092022;28;20475;-79
2022/04/15 03:58:19;;;;;;;5.23;4.70;;;;;;;;;;5091559;28;20448;-79
2022/04/15 04:00:46;;;;;;;5.73;5.23;;;;;;;;;;5092492;28;20452;-80
2022/04/15 04:03:14;;;;;;;5.60;5.10;;;;;;;;;;5092715;28;20448;-79
2022/04/15 04:05:41;;;;;;;5.67;5.10;;;;;;;;;;5087441;28;20547;-79
2022/04/15 04:08:09;;;;;;;5.90;5.30;;;;;;;;;;5072953;28;20975;-79
2022/04/15 04:10:36;;;;;;;5.43;4.93;;;;;;;;;;5073119;28;20441;-79
2022/04/15 04:13:03;;;;;;;5.17;4.67;;;;;;;;;;5070892;28;20506;-78
2022/04/15 04:15:31;;;;;;;8.33;5.00;;;;;;;;;;5071302;28;20469;-79
2022/04/15 04:17:59;;;;;;;6.67;4.60;;;;;;;;;;5071566;28;20483;-79
2022/04/15 04:20:26;;;;;;;6.43;4.73;;;;;;;;;;5071646;28;20961;-79
2022/04/15 04:22:53;;;;;;;6.73;5.10;;;;;;;;;;5070940;28;20920;-79
2022/04/15 04:25:20;;;;;;;7.00;4.93;;;;;;;;;;5071548;28;20457;-78
2022/04/15 04:27:47;;;;;;;7.60;5.30;;;;;;;;;;5071270;28;20440;-80
2022/04/15 04:30:15;;;;;;;6.17;5.67;;;;;;;;;;5072329;28;20445;-79
2022/04/15 04:32:49;;;;;;;7.00;5.60;;;;;;;;;;5071777;28;20448;-79
2022/04/15 04:35:17;;;;;;;6.23;5.43;;;;;;;;;;5072488;28;20885;-78
2022/04/15 04:37:44;;;;;;;7.03;6.53;;;;;;;;;;5071761;28;20595;-79
2022/04/15 04:40:12;;;;;;;6.63;6.03;;;;;;;;;;5071419;28;20469;-79
2022/04/15 04:42:39;;;;;;;6.67;6.07;;;;;;;;;;5071789;28;20447;-79
2022/04/15 04:45:07;;;;;;;7.13;6.43;;;;;;;;;;5073525;28;20473;-79
2022/04/15 04:47:34;;;;;;;11.03;6.60;;;;;;;;;;5072641;28;20441;-80
2022/04/15 04:50:02;;;;;;;7.83;5.70;;;;;;;;;;5072766;28;20460;-79
2022/04/15 04:52:29;;;;;;;6.10;5.60;;;;;;;;;;5074099;28;20437;-79
2022/04/15 04:54:57;;;;;;;8.23;6.07;;;;;;;;;;5076284;28;20472;-79
2022/04/15 04:57:24;;;;;;;6.40;5.70;;;;;;;;;;5075389;28;20476;-79
2022/04/15 04:59:51;;;;;;;8.43;7.53;;;;;;;;;;5077917;28;20962;-79
2022/04/15 05:02:18;;;;;;;6.70;6.13;;;;;;;;;;5079544;28;20441;-78
2022/04/15 05:04:45;;;;;;;6.43;5.80;;;;;;;;;;5077627;28;20468;-79
2022/04/15 05:07:14;;;;;;;7.60;6.20;;;;;;;;;;5094099;28;20436;-80
2022/04/15 05:09:43;;;;;;;7.37;6.60;;;;;;;;;;5096504;28;20452;-80
2022/04/15 05:12:11;;;;;;;6.73;5.40;;;;;;;;;;5096569;28;20837;-79
2022/04/15 05:14:38;;;;;;;7.43;6.30;;;;;;;;;;5095661;28;20499;-81
2022/04/15 05:17:05;;;;;;;6.63;6.07;;;;;;;;;;5094846;28;20510;-80
2022/04/15 05:19:32;;;;;;;6.70;6.10;;;;;;;;;;5095117;28;20829;-81
2022/04/15 05:21:59;;;;;;;6.93;6.23;;;;;;;;;;5094971;28;20444;-81
2022/04/15 05:24:28;;;;;;;7.20;6.60;;;;;;;;;;5094757;28;20447;-79
2022/04/15 05:26:55;;;;;;;6.37;5.67;;;;;;;;;;5094715;28;20432;-79
2022/04/15 05:29:22;;;;;;;7.60;6.97;;;;;;;;;;5094591;28;20470;-80
2022/04/15 05:31:49;;;;;;;7.10;6.50;;;;;;;;;;5095126;28;20435;-80
2022/04/15 05:34:16;;;;;;;8.17;6.80;;;;;;;;;;5094976;28;20444;-79
2022/04/15 05:36:43;;;;;;;7.10;6.40;;;;;;;;;;5093844;28;20561;-79
2022/04/15 05:39:10;;;;;;;7.80;6.40;;;;;;;;;;5094120;28;20455;-79
2022/04/15 05:41:39;;;;;;;7.63;6.60;;;;;;;;;;5094242;28;20439;-80
2022/04/15 05:44:08;;;;;;;8.53;7.20;;;;;;;;;;5094425;28;20943;-80
2022/04/15 05:46:37;;;;;;;6.90;6.30;;;;;;;;;;5094313;28;20467;-79
2022/04/15 05:49:04;;;;;;;7.90;7.10;;;;;;;;;;5095580;28;20454;-80
2022/04/15 05:51:31;;;;;;;7.77;7.03;;;;;;;;;;5095075;28;20493;-80
2022/04/15 05:53:58;;;;;;;7.67;7.03;;;;;;;;;;5095084;28;20727;-80
2022/04/15 05:56:26;;;;;;;8.80;8.00;;;;;;;;;;5094040;28;20464;-81
2022/04/15 05:58:54;;;;;;;8.03;7.37;;;;;;;;;;5094205;28;20927;-79
2022/04/15 06:01:22;;;;;;;8.10;7.40;;;;;;;;;;5097185;28;20447;-81
2022/04/15 06:03:49;;;;;;;9.43;8.57;;;;;;;;;;5093904;28;20505;-80
2022/04/15 06:06:16;;;;;;;9.27;7.97;;;;;;;;;;5097405;28;20463;-80
2022/04/15 06:08:43;;;;;;;7.83;7.13;;;;;;;;;;5094740;28;20447;-82
2022/04/15 06:11:10;;;;;;;7.93;7.30;;;;;;;;;;5094033;28;20467;-81
2022/04/15 06:13:41;;;;;;;8.23;7.53;;;;;;;;;;5093763;28;20474;-82
2022/04/15 06:16:10;;;;;;;8.00;7.10;;;;;;;;;;5094025;28;20474;-80
2022/04/15 06:18:37;;;;;;;8.70;7.60;;;;;;;;;;5094727;28;21060;-80
2022/04/15 06:21:04;;;;;;;8.07;7.37;;;;;;;;;;5095194;28;20447;-82
2022/04/15 06:23:32;;;;;;;8.10;7.30;;;;;;;;;;5093374;28;20436;-80
2022/04/15 06:25:59;;;;;;;8.97;8.10;;;;;;;;;;5094544;28;20558;-80
2022/04/15 06:28:26;;;;;;;9.80;8.80;;;;;;;;;;5093435;28;20435;-79
2022/04/15 06:30:54;;;;;;;10.97;8.97;;;;;;;;;;5096836;28;20443;-80
2022/04/15 06:33:22;;;;;;;8.63;7.93;;;;;;;;;;5095324;28;20527;-80
2022/04/15 06:35:51;;;;;;;8.60;7.70;;;;;;;;;;5093698;28;20463;-80
2022/04/15 06:38:18;;;;;;;9.40;7.40;;;;;;;;;;5093996;28;20495;-80
2022/04/15 06:40:45;;;;;;;9.53;8.70;;;;;;;;;;5096465;28;20463;-80
2022/04/15 06:43:14;;;;;;;8.30;7.60;;;;;;;;;;5095405;28;20448;-79
2022/04/15 06:45:41;;;;;;;10.47;9.27;;;;;;;;;;5094572;28;20502;-80
2022/04/15 06:48:08;;;;;;;10.70;9.70;;;;;;;;;;5095269;28;20436;-80
2022/04/15 06:50:36;;;;;;;10.47;9.40;;;;;;;;;;5094851;28;20440;-80
2022/04/15 06:53:04;;;;;;;10.27;9.47;;;;;;;;;;5092997;28;20466;-80
2022/04/15 06:55:31;;;;;;;10.53;9.43;;;;;;;;;;5093964;28;20962;-80
2022/04/15 06:57:58;;;;;;;12.07;10.00;;;;;;;;;;5095035;28;20471;-80
2022/04/15 07:00:25;;;;;;;11.27;10.27;;;;;;;;;;5098272;28;20439;-81
2022/04/15 07:02:52;;;;;;;12.53;11.23;;;;;;;;;;5094678;28;20444;-79
2022/04/15 07:05:19;;;;;;;11.00;10.00;;;;;;;;;;5094138;28;20468;-81
2022/04/15 07:07:48;;;;;;;11.03;10.03;;;;;;;;;;5095079;28;20927;-80
2022/04/15 07:10:15;;;;;;;12.07;10.87;;;;;;;;;;5093215;28;20938;-80
2022/04/15 07:12:42;;;;;;;13.17;11.87;;;;;;;;;;5093270;28;20830;-80
2022/04/15 07:15:10;;;;;;;13.83;12.33;;;;;;;;;;5091841;28;20453;-79
2022/04/15 07:17:37;;;;;;;14.37;12.90;;;;;;;;;;5092498;28;20476;-80
2022/04/15 07:20:04;;;;;;;12.67;11.37;;;;;;;;;;5093668;28;20440;-79
2022/04/15 07:22:31;;;;;;;13.93;12.63;;;;;;;;;;5093998;28;20808;-80
2022/04/15 07:25:00;;;;;;;13.40;12.10;;;;;;;;;;5092627;28;20475;-79
2022/04/15 07:27:27;;;;;;;16.33;14.83;;;;;;;;;;5093477;28;20444;-80
2022/04/15 07:29:54;;;;;;;17.50;14.73;;;;;;;;;;5092872;28;20443;-80
2022/04/15 07:32:22;;;;;;;15.07;13.60;;;;;;;;;;5092949;28;20451;-80
2022/04/15 07:34:49;;;;;;;17.27;13.10;;;;;;;;;;5092665;28;20468;-81
2022/04/15 07:37:17;;;;;;;16.83;15.13;;;;;;;;;;5092605;28;20487;-79
2022/04/15 07:39:44;;;;;;;15.70;14.10;;;;;;;;;;5093614;28;20452;-80
2022/04/15 07:42:13;;;;;;;17.20;15.07;;;;;;;;;;5093096;28;20482;-81
2022/04/15 07:44:44;;;;;;;17.70;16.00;;;;;;;;;;5092179;28;20460;-79
2022/04/15 07:47:11;;;;;;;17.30;15.70;;;;;;;;;;5093042;28;20432;-80
2022/04/15 07:49:38;;;;;;;17.23;15.43;;;;;;;;;;5094792;28;20450;-79
2022/04/15 07:52:06;;;;;;;17.47;15.57;;;;;;;;;;5093714;28;20436;-79
2022/04/15 07:54:33;;;;;;;16.83;15.13;;;;;;;;;;5094299;28;20588;-80
2022/04/15 07:57:00;;;;;;;16.30;14.83;;;;;;;;;;5094792;28;20907;-80
2022/04/15 07:59:29;;;;;;;18.57;16.67;;;;;;;;;;5096031;28;20439;-79
2022/04/15 08:01:58;;;;;;;17.57;15.90;;;;;;;;;;5095256;28;20451;-80
2022/04/15 08:04:25;;;;;;;18.53;16.17;;;;;;;;;;5098330;28;20440;-79
2022/04/15 08:06:52;;;;;;;17.90;16.30;;;;;;;;;;5085051;28;20813;-80
2022/04/15 08:09:19;;;;;;;19.33;17.17;;;;;;;;;;5080210;28;20440;-82
2022/04/15 08:11:46;;;;;;;19.73;17.60;;;;;;;;;;5075107;28;20436;-80
2022/04/15 08:14:13;;;;;;;17.70;16.00;;;;;;;;;;5078877;28;20471;-82
2022/04/15 08:16:42;;;;;;;15.80;14.30;;;;;;;;;;5074690;28;20452;-82
2022/04/15 08:19:09;;;;;;;17.37;15.60;;;;;;;;;;5074575;28;20480;-79
2022/04/15 08:21:36;;;;;;;16.73;15.23;;;;;;;;;;5074326;28;20456;-79
2022/04/15 08:24:03;;;;;;;18.10;16.40;;;;;;;;;;5074646;28;20651;-79
2022/04/15 08:26:30;;;;;;;22.07;18.90;;;;;;;;;;5077450;28;20452;-83
2022/04/15 08:28:57;;;;;;;18.07;16.47;;;;;;;;;;5098193;28;20432;-84
2022/04/15 08:31:24;;;;;;;17.53;15.97;;;;;;;;;;5090788;28;20433;-81
2022/04/15 08:33:53;;;;;;;19.00;17.20;;;;;;;;;;5083427;28;20467;-79
2022/04/15 08:36:20;;;;;;;19.80;17.57;;;;;;;;;;5076656;28;20476;-81
2022/04/15 08:38:47;;;;;;;19.10;17.40;;;;;;;;;;5078060;28;20476;-80
2022/04/15 08:41:15;;;;;;;18.53;16.87;;;;;;;;;;5077752;28;20435;-82
2022/04/15 08:43:42;;;;;;;18.33;16.80;;;;;;;;;;5078503;28;20441;-80
2022/04/15 08:46:10;;;;;;;20.90;19.00;;;;;;;;;;5078068;28;20459;-79
2022/04/15 08:48:38;;;;;;;19.10;17.50;;;;;;;;;;5079512;28;20468;-83
2022/04/15 08:51:09;;;;;;;18.87;17.10;;;;;;;;;;5077755;28;20935;-79
2022/04/15 08:53:37;;;;;;;22.47;20.47;;;;;;;;;;5080933;28;20448;-80
2022/04/15 08:56:04;;;;;;;19.83;18.07;;;;;;;;;;5079976;28;20460;-80
2022/04/15 08:58:31;;;;;;;19.57;17.77;;;;;;;;;;5080838;28;20472;-80
2022/04/15 09:00:58;;;;;;;21.37;19.40;;;;;;;;;;5081190;28;20459;-80
2022/04/15 09:03:25;;;;;;;20.37;18.57;;;;;;;;;;5081665;28;20498;-81
2022/04/15 09:05:53;;;;;;;20.23;18.30;;;;;;;;;;5086142;28;21028;-81
2022/04/15 09:08:24;;;;;;;20.30;18.50;;;;;;;;;;5101294;28;20471;-81
2022/04/15 09:10:59;;;;;;;20.23;18.50;;;;;;;;;;5103798;28;20436;-81
2022/04/15 09:13:34;;;;;;;21.57;19.67;;;;;;;;;;5105024;28;20459;-81
2022/04/15 09:16:01;;;;;;;22.40;20.60;;;;;;;;;;5105087;28;20915;-79
2022/04/15 09:18:29;;;;;;;19.77;18.17;;;;;;;;;;5104990;28;20467;-80
2022/04/15 09:21:16;;;;;;;22.20;20.20;;;;;;;;;;5103921;28;20436;-82
2022/04/15 09:23:45;;;;;;;21.00;19.10;;;;;;;;;;5103127;28;20428;-80
2022/04/15 09:26:12;;;;;;;20.93;19.23;;;;;;;;;;5100875;28;20756;-81
2022/04/15 09:28:39;;;;;;;20.77;19.07;;;;;;;;;;5102842;28;20919;-81
2022/04/15 09:31:12;;;;;;;19.73;18.10;;;;;;;;;;5102973;28;20440;-82
2022/04/15 09:33:56;;;;;;;21.20;19.40;;;;;;;;;;5101898;28;20447;-81
2022/04/15 09:36:30;;;;;;;20.00;18.40;;;;;;;;;;5102947;28;20488;-79
2022/04/15 09:39:03;;;;;;;21.97;20.10;;;;;;;;;;5101219;28;20470;-81
2022/04/15 09:41:31;;;;;;;20.20;18.40;;;;;;;;;;5100856;28;20443;-80
2022/04/15 09:44:06;;;;;;;19.43;17.93;;;;;;;;;;5101724;28;20440;-80
2022/04/15 09:46:33;;;;;;;19.20;17.60;;;;;;;;;;5103373;28;20439;-81
2022/04/15 09:49:07;;;;;;;20.27;18.67;;;;;;;;;;5100429;28;20451;-80
2022/04/15 09:51:37;;;;;;;18.20;16.70;;;;;;;;;;5101757;28;20470;-80
2022/04/15 09:54:06;;;;;;;18.87;17.37;;;;;;;;;;5099094;28;20927;-80
2022/04/15 09:56:36;;;;;;;19.90;18.17;;;;;;;;;;5099880;28;20464;-79
2022/04/15 09:59:05;;;;;;;20.73;18.93;;;;;;;;;;5101681;28;20483;-80
2022/04/15 10:01:33;;;;;;;17.87;16.10;;;;;;;;;;5099804;28;20870;-80
2022/04/15 10:04:01;;;;;;;17.53;15.73;;;;;;;;;;5102083;28;20458;-81
2022/04/15 10:06:29;;;;;;;16.60;15.10;;;;;;;;;;5087907;28;20465;-80
2022/04/15 10:08:57;;;;;;;16.60;15.30;;;;;;;;;;5075562;28;20444;-80
2022/04/15 10:11:26;;;;;;;19.23;17.43;;;;;;;;;;5077099;28;20979;-81
2022/04/15 10:13:53;;;;;;;18.00;16.57;;;;;;;;;;5077546;28;20459;-80
2022/04/15 10:16:21;;;;;;;17.10;15.60;;;;;;;;;;5079917;28;20456;-81
2022/04/15 10:18:49;;;;;;;17.90;16.30;;;;;;;;;;5078803;28;21057;-81
2022/04/15 10:21:16;;;;;;;16.57;15.10;;;;;;;;;;5079904;28;20938;-79
2022/04/15 10:23:43;;;;;;;17.40;15.90;;;;;;;;;;5079223;28;20449;-81
2022/04/15 10:26:11;;;;;;;19.07;17.37;;;;;;;;;;5080045;28;20483;-79
2022/04/15 10:28:44;;;;;;;19.47;17.73;;;;;;;;;;5076213;28;20445;-80
2022/04/15 10:31:13;;;;;;;16.37;14.87;;;;;;;;;;5080246;28;20488;-80
2022/04/15 10:33:40;;;;;;;17.83;16.30;;;;;;;;;;5080611;28;20437;-80
2022/04/15 10:36:14;;;;;;;16.23;14.83;;;;;;;;;;5078497;28;20461;-81
2022/04/15 10:39:00;;;;;;;13.00;12.10;;;;;;;;;;5079227;28;20471;-81
2022/04/15 10:41:27;;;;;;;14.80;13.50;;;;;;;;;;5079998;28;20814;-81
2022/04/15 10:44:00;;;;;;;15.10;13.90;;;;;;;;;;5078947;28;20888;-81
2022/04/15 10:46:30;;;;;;;14.57;13.33;;;;;;;;;;5079976;28;20445;-79
2022/04/15 10:48:58;;;;;;;15.77;14.47;;;;;;;;;;5078893;28;20444;-79
2022/04/15 10:51:27;;;;;;;16.43;15.10;;;;;;;;;;5077220;28;20447;-80
2022/04/15 10:53:54;;;;;;;16.90;15.33;;;;;;;;;;5081332;28;20457;-82
2022/04/15 10:56:24;;;;;;;14.30;13.00;;;;;;;;;;5082824;28;20469;-80
2022/04/15 11:02:02;;;;;;;13.87;12.60;;;;;;;;;;5039877;28;21013;-80
2022/04/15 11:04:35;;;;;;;14.63;13.20;;;;;;;;;;5071293;28;20437;-79
2022/04/15 11:07:15;;;;;;;12.90;11.80;;;;;;;;;;5104557;28;20439;-81
2022/04/15 11:09:42;;;;;;;12.60;11.70;;;;;;;;;;5109671;28;20423;-80
2022/04/15 11:12:10;;;;;;;14.37;12.77;;;;;;;;;;5108843;28;20439;-82
2022/04/15 11:14:45;;;;;;;12.80;11.70;;;;;;;;;;5105531;28;20471;-80
2022/04/15 11:17:14;;;;;;;13.33;12.10;;;;;;;;;;5104691;28;20482;-81
2022/04/15 11:19:42;;;;;;;11.23;10.23;;;;;;;;;;5101872;28;20468;-80
2022/04/15 11:22:09;;;;;;;13.17;12.17;;;;;;;;;;5101393;28;20436;-80
2022/04/15 11:24:38;;;;;;;11.50;10.63;;;;;;;;;;5103163;28;20468;-80
2022/04/15 11:27:05;;;;;;;11.13;10.20;;;;;;;;;;5100173;28;20444;-80
2022/04/15 11:29:33;;;;;;;11.80;10.80;;;;;;;;;;5103463;28;20440;-81
2022/04/15 11:32:02;;;;;;;10.77;9.87;;;;;;;;;;5098413;28;20444;-81
2022/04/15 11:34:29;;;;;;;12.17;11.07;;;;;;;;;;5100287;28;20440;-79
2022/04/15 11:36:57;;;;;;;11.63;10.73;;;;;;;;;;5097533;28;20439;-81
2022/04/15 11:39:24;;;;;;;12.93;11.93;;;;;;;;;;5102856;28;20498;-81
2022/04/15 11:41:52;;;;;;;12.43;11.33;;;;;;;;;;5098071;28;20443;-80
2022/04/15 11:44:19;;;;;;;11.60;10.60;;;;;;;;;;5097610;28;20444;-80
2022/04/15 11:46:48;;;;;;;13.10;11.90;;;;;;;;;;5099100;28;20776;-80
2022/04/15 11:49:18;;;;;;;12.17;10.57;;;;;;;;;;5100709;28;20849;-80
2022/04/15 11:51:46;;;;;;;14.50;13.00;;;;;;;;;;5097392;28;20451;-80
2022/04/15 11:54:13;;;;;;;14.30;13.00;;;;;;;;;;5098706;28;20444;-81
2022/04/15 11:56:42;;;;;;;12.90;11.90;;;;;;;;;;5099877;28;20446;-81
2022/04/15 11:59:09;;;;;;;12.57;11.57;;;;;;;;;;5098250;28;20483;-81
2022/04/15 12:01:36;;;;;;;10.60;9.70;;;;;;;;;;5104075;28;20440;-80
2022/04/15 12:04:04;;;;;;;12.43;11.33;;;;;;;;;;5106479;28;20436;-80
2022/04/15 12:06:33;;;;;;;11.93;10.83;;;;;;;;;;5102806;28;20547;-82
2022/04/15 12:09:00;;;;;;;12.43;11.33;;;;;;;;;;5106425;28;20447;-82
2022/04/15 12:11:27;;;;;;;12.10;11.00;;;;;;;;;;5105451;28;20447;-81
2022/04/15 12:13:58;;;;;;;12.60;11.40;;;;;;;;;;5105591;28;20531;-79
2022/04/15 12:16:25;;;;;;;11.57;10.57;;;;;;;;;;5102128;28;20657;-80
2022/04/15 12:18:53;;;;;;;11.33;10.33;;;;;;;;;;5102379;28;20495;-81
2022/04/15 12:21:20;;;;;;;15.60;11.57;;;;;;;;;;5101056;28;20445;-79
2022/04/15 12:24:01;;;;;;;11.50;10.50;;;;;;;;;;5102922;28;20435;-81
2022/04/15 12:26:28;;;;;;;11.93;10.80;;;;;;;;;;5105438;28;20464;-81
2022/04/15 12:31:48;;;;;;;13.30;12.00;;;;;;;;;;5103787;28;20415;-79
2022/04/15 12:34:15;;;;;;;12.00;10.80;;;;;;;;;;5102633;28;20515;-81
2022/04/15 12:36:43;;;;;;;10.20;9.30;;;;;;;;;;5101688;28;20458;-80
2022/04/15 12:39:11;;;;;;;10.40;9.40;;;;;;;;;;5104357;28;20467;-80
2022/04/15 12:41:40;;;;;;;8.43;7.73;;;;;;;;;;5106080;28;20448;-81
2022/04/15 12:44:14;;;;;;;10.17;8.77;;;;;;;;;;5104968;28;20452;-81
2022/04/15 12:46:42;;;;;;;8.10;6.83;;;;;;;;;;5105995;28;20471;-80
2022/04/15 12:49:22;;;;;;;11.00;7.00;;;;;;;;;;5105796;28;20435;-82
2022/04/15 12:51:49;;;;;;;8.27;7.50;;;;;;;;;;5100617;28;20446;-79
2022/04/15 12:54:17;;;;;;;9.37;8.60;;;;;;;;;;5101092;28;20458;-81
2022/04/15 12:56:54;;;;;;;8.63;7.77;;;;;;;;;;5105585;28;20451;-81
2022/04/15 12:59:21;;;;;;;7.10;6.53;;;;;;;;;;5103393;28;20475;-79
2022/04/15 13:01:48;;;;;;;8.23;7.50;;;;;;;;;;5102875;28;20436;-80
2022/04/15 13:04:15;;;;;;;7.80;7.13;;;;;;;;;;5103298;28;20439;-80
2022/04/15 13:06:43;;;;;;;7.03;6.33;;;;;;;;;;5103710;28;20440;-81
2022/04/15 13:09:10;;;;;;;7.00;6.00;;;;;;;;;;5105302;28;20444;-82
2022/04/15 13:11:39;;;;;;;7.50;6.90;;;;;;;;;;5108047;28;20439;-80
2022/04/15 13:14:06;;;;;;;6.97;6.37;;;;;;;;;;5101672;28;20448;-81
2022/04/15 13:16:33;;;;;;;7.90;7.30;;;;;;;;;;5104828;28;20474;-80
2022/04/15 13:19:00;;;;;;;7.67;7.07;;;;;;;;;;5102092;28;20871;-82
2022/04/15 13:21:28;;;;;;;7.10;6.50;;;;;;;;;;5103390;28;20451;-78
2022/04/15 13:23:59;;;;;;;8.87;8.07;;;;;;;;;;5102349;28;20436;-81
2022/04/15 13:26:27;;;;;;;8.83;8.13;;;;;;;;;;5104494;28;20969;-81
2022/04/15 13:28:56;;;;;;;8.73;7.93;;;;;;;;;;5105435;28;20444;-80
2022/04/15 13:31:23;;;;;;;10.23;9.27;;;;;;;;;;5103344;28;20463;-83
2022/04/15 13:33:50;;;;;;;6.80;6.30;;;;;;;;;;5101438;28;20444;-80
2022/04/15 13:36:17;;;;;;;7.93;7.27;;;;;;;;;;5103440;28;20523;-78
2022/04/15 13:38:44;;;;;;;7.00;6.40;;;;;;;;;;5099534;28;20786;-79
2022/04/15 13:41:14;;;;;;;7.07;6.40;;;;;;;;;;5100684;28;20440;-79
2022/04/15 13:43:41;;;;;;;7.37;6.60;;;;;;;;;;5101687;28;20774;-80
2022/04/15 13:46:09;;;;;;;7.97;7.27;;;;;;;;;;5101875;28;20494;-81
2022/04/15 13:48:36;;;;;;;6.97;6.33;;;;;;;;;;5096916;28;20516;-80
2022/04/15 13:51:03;;;;;;;8.20;7.40;;;;;;;;;;5096481;28;20467;-79
2022/04/15 13:59:01;;;;;;;9.27;8.20;;;;;;;;;;5097961;28;20470;-79
2022/04/15 14:01:31;;;;;;;7.10;6.40;;;;;;;;;;5096661;28;20471;-79
2022/04/15 14:03:58;;;;;;;7.63;6.90;;;;;;;;;;5096255;28;20447;-79
2022/04/15 14:06:26;;;;;;;8.70;7.90;;;;;;;;;;5095175;28;20546;-80
2022/04/15 14:08:53;;;;;;;7.10;6.60;;;;;;;;;;5109087;28;20474;-80
2022/04/15 14:11:20;;;;;;;8.67;7.20;;;;;;;;;;5109055;28;20444;-79
2022/04/15 14:13:47;;;;;;;7.23;6.37;;;;;;;;;;5105274;28;20447;-79
2022/04/15 14:16:15;;;;;;;7.40;6.80;;;;;;;;;;5095305;28;20996;-79
2022/04/15 14:18:43;;;;;;;6.90;6.30;;;;;;;;;;5095213;28;20435;-80
2022/04/15 14:21:10;;;;;;;6.20;5.70;;;;;;;;;;5094773;28;20447;-80
2022/04/15 14:23:38;;;;;;;6.40;5.90;;;;;;;;;;5093844;28;20443;-80
2022/04/15 14:26:05;;;;;;;7.50;7.00;;;;;;;;;;5093661;28;20468;-78
2022/04/15 14:28:33;;;;;;;8.13;7.53;;;;;;;;;;5094759;28;20436;-80
2022/04/15 14:31:03;;;;;;;7.53;6.80;;;;;;;;;;5094035;28;20497;-79
2022/04/15 14:33:30;;;;;;;7.10;6.53;;;;;;;;;;5094325;28;20442;-80
2022/04/15 14:35:59;;;;;;;6.73;6.10;;;;;;;;;;5094428;28;20451;-79
2022/04/15 14:38:27;;;;;;;6.30;5.90;;;;;;;;;;5094151;28;20442;-80
2022/04/15 14:40:54;;;;;;;6.40;5.97;;;;;;;;;;5094646;28;20479;-79
2022/04/15 14:43:21;;;;;;;7.47;6.77;;;;;;;;;;5093921;28;20447;-79
2022/04/15 14:45:49;;;;;;;6.40;5.90;;;;;;;;;;5093609;28;20460;-79
2022/04/15 14:48:16;;;;;;;6.70;6.20;;;;;;;;;;5094748;28;20469;-80
2022/04/15 14:50:43;;;;;;;5.90;5.50;;;;;;;;;;5093768;28;20439;-80